EZY38LT LPPR-EGGW
Flight info
| Callsign | EZY38LT |
|---|---|
| Flight time | N/A |
| Altitude | 24000 |
| Route | TURON P600 ASDEB/N0451F360 DCT LOTEE DCT OZNOH DCT ARTIV DCT DIKRO UM185 DESNA/N0420F240 M185 TELTU |
| Aircraft | A320/M-SDE3FGHIRWY/LB1 |
Departure
| Time | N/A |
|---|---|
| Airport | Francisco de Sá Carneiro Airport (LPPR) |
Arrival
| Time | 2026-04-27 21:20 |
|---|---|
| Airport | London Luton Airport (EGGW) |
| Time | Latitude | Longitude | Altitude | Speed | Heading |
|---|---|---|---|---|---|
| 2026-04-27 20:44 | 49.63078 | -1.05849 | 36240 ft | 439 kts | 34° |
| 2026-04-27 20:44 | 49.65514 | -1.02928 | 36239 ft | 439 kts | 35° |
| 2026-04-27 20:44 | 49.70318 | -0.97089 | 36243 ft | 439 kts | 35° |
| 2026-04-27 20:45 | 49.75401 | -0.92091 | 36250 ft | 432 kts | 19° |
| 2026-04-27 20:45 | 49.81162 | -0.89884 | 36260 ft | 424 kts | 1° |
| 2026-04-27 20:46 | 49.87054 | -0.89100 | 36240 ft | 425 kts | 2° |
| 2026-04-27 20:46 | 49.92868 | -0.88257 | 35597 ft | 421 kts | 2° |
| 2026-04-27 20:47 | 49.95810 | -0.87829 | 34847 ft | 424 kts | 2° |
| 2026-04-27 20:47 | 49.98736 | -0.87407 | 34411 ft | 420 kts | 2° |
| 2026-04-27 20:47 | 50.01644 | -0.86993 | 33824 ft | 418 kts | 2° |
| 2026-04-27 20:47 | 50.04525 | -0.86583 | 33298 ft | 414 kts | 2° |
| 2026-04-27 20:48 | 50.07382 | -0.86172 | 32777 ft | 410 kts | 2° |
| 2026-04-27 20:48 | 50.10208 | -0.85760 | 32248 ft | 406 kts | 2° |
| 2026-04-27 20:48 | 50.12974 | -0.85359 | 31747 ft | 402 kts | 2° |
| 2026-04-27 20:48 | 50.15745 | -0.84962 | 31225 ft | 398 kts | 2° |
| 2026-04-27 20:49 | 50.18491 | -0.84572 | 30749 ft | 394 kts | 1° |
| 2026-04-27 20:49 | 50.21216 | -0.84185 | 30261 ft | 391 kts | 1° |
| 2026-04-27 20:49 | 50.23912 | -0.83801 | 29740 ft | 386 kts | 1° |
| 2026-04-27 20:49 | 50.26559 | -0.83421 | 29284 ft | 379 kts | 1° |
| 2026-04-27 20:50 | 50.29164 | -0.83043 | 28847 ft | 373 kts | 1° |
| 2026-04-27 20:50 | 50.31727 | -0.82673 | 28414 ft | 367 kts | 1° |
| 2026-04-27 20:50 | 50.34253 | -0.82309 | 27986 ft | 361 kts | 1° |
| 2026-04-27 20:50 | 50.36740 | -0.81949 | 27563 ft | 356 kts | 1° |
| 2026-04-27 20:51 | 50.39196 | -0.81592 | 27142 ft | 351 kts | 1° |
| 2026-04-27 20:51 | 50.41612 | -0.81240 | 26722 ft | 347 kts | 1° |
| 2026-04-27 20:51 | 50.43976 | -0.80895 | 26315 ft | 344 kts | 1° |
| 2026-04-27 20:51 | 50.46379 | -0.80547 | 25876 ft | 341 kts | 1° |
| 2026-04-27 20:52 | 50.48702 | -0.80214 | 25456 ft | 338 kts | 1° |
| 2026-04-27 20:52 | 50.51036 | -0.79881 | 25021 ft | 336 kts | 1° |
| 2026-04-27 20:52 | 50.53357 | -0.79546 | 24573 ft | 334 kts | 1° |
| 2026-04-27 20:52 | 50.55665 | -0.79210 | 24132 ft | 332 kts | 1° |
| 2026-04-27 20:53 | 50.57967 | -0.78873 | 23665 ft | 331 kts | 1° |
| 2026-04-27 20:53 | 50.60257 | -0.78540 | 23175 ft | 329 kts | 1° |
| 2026-04-27 20:53 | 50.62531 | -0.78209 | 22748 ft | 326 kts | 0° |
| 2026-04-27 20:53 | 50.64781 | -0.77882 | 22348 ft | 324 kts | 0° |
| 2026-04-27 20:54 | 50.69246 | -0.77230 | 21465 ft | 320 kts | 0° |
| 2026-04-27 20:54 | 50.71427 | -0.76908 | 21056 ft | 317 kts | 0° |
| 2026-04-27 20:54 | 50.73616 | -0.76588 | 20653 ft | 315 kts | 0° |
| 2026-04-27 20:55 | 50.75789 | -0.76268 | 20242 ft | 313 kts | 360° |
| 2026-04-27 20:55 | 50.77957 | -0.75948 | 19836 ft | 312 kts | 359° |
| 2026-04-27 20:55 | 50.80116 | -0.75613 | 19434 ft | 312 kts | 2° |
| 2026-04-27 20:55 | 50.82242 | -0.74755 | 19117 ft | 320 kts | 15° |
| 2026-04-27 20:56 | 50.84328 | -0.73401 | 19052 ft | 325 kts | 15° |
| 2026-04-27 20:56 | 50.86433 | -0.72048 | 18985 ft | 327 kts | 15° |
| 2026-04-27 20:56 | 50.88539 | -0.70704 | 18920 ft | 326 kts | 15° |
| 2026-04-27 20:56 | 50.90636 | -0.69362 | 18810 ft | 323 kts | 16° |
| 2026-04-27 20:57 | 50.92693 | -0.68041 | 18714 ft | 323 kts | 16° |
| 2026-04-27 20:57 | 50.94769 | -0.66705 | 18622 ft | 322 kts | 16° |
| 2026-04-27 20:57 | 50.96850 | -0.65365 | 18521 ft | 322 kts | 16° |
| 2026-04-27 20:57 | 50.98924 | -0.64022 | 18412 ft | 322 kts | 16° |
| 2026-04-27 20:58 | 51.01002 | -0.62674 | 18335 ft | 321 kts | 16° |
| 2026-04-27 20:58 | 51.03070 | -0.61334 | 18233 ft | 321 kts | 16° |
| 2026-04-27 20:58 | 51.05134 | -0.59995 | 18134 ft | 320 kts | 16° |
| 2026-04-27 20:58 | 51.07193 | -0.58655 | 18041 ft | 319 kts | 16° |
| 2026-04-27 20:59 | 51.09247 | -0.57317 | 17951 ft | 319 kts | 16° |
| 2026-04-27 20:59 | 51.11301 | -0.55982 | 17847 ft | 318 kts | 16° |
| 2026-04-27 20:59 | 51.13346 | -0.54650 | 17772 ft | 317 kts | 16° |
| 2026-04-27 20:59 | 51.15359 | -0.53334 | 17666 ft | 316 kts | 17° |
| 2026-04-27 21:00 | 51.17396 | -0.52001 | 17566 ft | 316 kts | 17° |
| 2026-04-27 21:00 | 51.19423 | -0.50676 | 17486 ft | 315 kts | 17° |
| 2026-04-27 21:00 | 51.21449 | -0.49349 | 17387 ft | 314 kts | 17° |
| 2026-04-27 21:00 | 51.23471 | -0.48024 | 17284 ft | 314 kts | 17° |
| 2026-04-27 21:01 | 51.25491 | -0.46701 | 17213 ft | 313 kts | 17° |
| 2026-04-27 21:01 | 51.27503 | -0.45385 | 17111 ft | 312 kts | 17° |
| 2026-04-27 21:01 | 51.29513 | -0.44069 | 17014 ft | 312 kts | 17° |
| 2026-04-27 21:01 | 51.31520 | -0.42751 | 16925 ft | 311 kts | 17° |
| 2026-04-27 21:02 | 51.33520 | -0.41433 | 16867 ft | 311 kts | 17° |
| 2026-04-27 21:02 | 51.35513 | -0.40121 | 16766 ft | 309 kts | 17° |
| 2026-04-27 21:02 | 51.37496 | -0.38815 | 16673 ft | 308 kts | 17° |
| 2026-04-27 21:02 | 51.39474 | -0.37510 | 16585 ft | 307 kts | 17° |
| 2026-04-27 21:03 | 51.41443 | -0.36212 | 16494 ft | 306 kts | 17° |
| 2026-04-27 21:03 | 51.43411 | -0.34913 | 16403 ft | 306 kts | 18° |
| 2026-04-27 21:03 | 51.45335 | -0.33554 | 16315 ft | 306 kts | 20° |
| 2026-04-27 21:03 | 51.47260 | -0.32096 | 16221 ft | 306 kts | 21° |
| 2026-04-27 21:04 | 51.49173 | -0.30606 | 16132 ft | 305 kts | 21° |
| 2026-04-27 21:04 | 51.51086 | -0.29108 | 16044 ft | 305 kts | 21° |
| 2026-04-27 21:04 | 51.52995 | -0.27619 | 15956 ft | 304 kts | 21° |
| 2026-04-27 21:04 | 51.54899 | -0.26140 | 15857 ft | 304 kts | 21° |
| 2026-04-27 21:05 | 51.56805 | -0.24669 | 15775 ft | 303 kts | 21° |
| 2026-04-27 21:05 | 51.58705 | -0.23210 | 15689 ft | 302 kts | 21° |
| 2026-04-27 21:05 | 51.60600 | -0.21753 | 15644 ft | 301 kts | 21° |
| 2026-04-27 21:05 | 51.62494 | -0.20299 | 15554 ft | 301 kts | 21° |
| 2026-04-27 21:06 | 51.64383 | -0.18850 | 15472 ft | 301 kts | 21° |
| 2026-04-27 21:06 | 51.66268 | -0.17400 | 15385 ft | 300 kts | 21° |
| 2026-04-27 21:06 | 51.68151 | -0.15948 | 15288 ft | 300 kts | 21° |
| 2026-04-27 21:06 | 51.70006 | -0.14514 | 15151 ft | 299 kts | 21° |
| 2026-04-27 21:07 | 51.71877 | -0.13069 | 15032 ft | 298 kts | 21° |
| 2026-04-27 21:07 | 51.73748 | -0.11612 | 14900 ft | 298 kts | 23° |
| 2026-04-27 21:07 | 51.75476 | -0.09756 | 14769 ft | 299 kts | 37° |
| 2026-04-27 21:07 | 51.76952 | -0.07371 | 14652 ft | 300 kts | 41° |
| 2026-04-27 21:08 | 51.78401 | -0.05016 | 14505 ft | 298 kts | 35° |
| 2026-04-27 21:08 | 51.80191 | -0.03498 | 14324 ft | 288 kts | 11° |
| 2026-04-27 21:08 | 51.82146 | -0.03392 | 13970 ft | 281 kts | 347° |
| 2026-04-27 21:08 | 51.84038 | -0.04201 | 13533 ft | 282 kts | 343° |
| 2026-04-27 21:09 | 51.85889 | -0.05120 | 13142 ft | 281 kts | 342° |
| 2026-04-27 21:09 | 51.87747 | -0.06059 | 12746 ft | 279 kts | 342° |
| 2026-04-27 21:09 | 51.89602 | -0.07003 | 12382 ft | 279 kts | 342° |
| 2026-04-27 21:09 | 51.91445 | -0.07938 | 12011 ft | 276 kts | 342° |
| 2026-04-27 21:10 | 51.93267 | -0.08866 | 11615 ft | 274 kts | 342° |
| 2026-04-27 21:10 | 51.95090 | -0.09800 | 11228 ft | 274 kts | 341° |
| 2026-04-27 21:10 | 51.96727 | -0.11317 | 10868 ft | 273 kts | 317° |
| 2026-04-27 21:10 | 51.97744 | -0.13900 | 10537 ft | 275 kts | 290° |
| 2026-04-27 21:11 | 51.97908 | -0.16987 | 10205 ft | 280 kts | 264° |
| 2026-04-27 21:11 | 51.97460 | -0.20079 | 9794 ft | 283 kts | 258° |
| 2026-04-27 21:11 | 51.96925 | -0.23139 | 9393 ft | 282 kts | 257° |
| 2026-04-27 21:11 | 51.96379 | -0.26182 | 8994 ft | 281 kts | 257° |
| 2026-04-27 21:12 | 51.95833 | -0.29217 | 8614 ft | 279 kts | 257° |
| 2026-04-27 21:12 | 51.95289 | -0.32224 | 8162 ft | 276 kts | 257° |
| 2026-04-27 21:12 | 51.94745 | -0.35207 | 7496 ft | 275 kts | 257° |
| 2026-04-27 21:12 | 51.94217 | -0.38094 | 7295 ft | 256 kts | 257° |
| 2026-04-27 21:13 | 51.93713 | -0.40779 | 6974 ft | 244 kts | 257° |
| 2026-04-27 21:13 | 51.93216 | -0.43390 | 6470 ft | 241 kts | 257° |
| 2026-04-27 21:13 | 51.92725 | -0.45985 | 5905 ft | 240 kts | 257° |
| 2026-04-27 21:13 | 51.92239 | -0.48574 | 5354 ft | 240 kts | 257° |
| 2026-04-27 21:14 | 51.91750 | -0.51161 | 4795 ft | 240 kts | 257° |
| 2026-04-27 21:14 | 51.91264 | -0.53750 | 4256 ft | 240 kts | 257° |
| 2026-04-27 21:14 | 51.90784 | -0.56331 | 3718 ft | 239 kts | 257° |
| 2026-04-27 21:14 | 51.90307 | -0.58914 | 3256 ft | 239 kts | 257° |
| 2026-04-27 21:15 | 51.89618 | -0.61363 | 2995 ft | 243 kts | 232° |
| 2026-04-27 21:15 | 51.88259 | -0.62956 | 2874 ft | 245 kts | 198° |
| 2026-04-27 21:15 | 51.86592 | -0.63186 | 2782 ft | 241 kts | 164° |
| 2026-04-27 21:15 | 51.85155 | -0.62049 | 2683 ft | 231 kts | 133° |
| 2026-04-27 21:16 | 51.84226 | -0.60017 | 2585 ft | 222 kts | 107° |
| 2026-04-27 21:16 | 51.83949 | -0.57642 | 2487 ft | 209 kts | 82° |
| 2026-04-27 21:16 | 51.84218 | -0.55469 | 2488 ft | 189 kts | 70° |
| 2026-04-27 21:16 | 51.84549 | -0.53580 | 2452 ft | 163 kts | 70° |
| 2026-04-27 21:17 | 51.84845 | -0.51891 | 2281 ft | 148 kts | 70° |
| 2026-04-27 21:17 | 51.85110 | -0.50374 | 2104 ft | 135 kts | 69° |
| 2026-04-27 21:17 | 51.85361 | -0.48935 | 1919 ft | 131 kts | 70° |
| 2026-04-27 21:17 | 51.85608 | -0.47524 | 1744 ft | 130 kts | 70° |
| 2026-04-27 21:18 | 51.85855 | -0.46112 | 1565 ft | 130 kts | 69° |
| 2026-04-27 21:18 | 51.86098 | -0.44718 | 1384 ft | 129 kts | 70° |
| 2026-04-27 21:18 | 51.86344 | -0.43309 | 1200 ft | 130 kts | 69° |
| 2026-04-27 21:18 | 51.86583 | -0.41912 | 1025 ft | 129 kts | 70° |
| 2026-04-27 21:19 | 51.86826 | -0.40502 | 857 ft | 131 kts | 69° |
| 2026-04-27 21:19 | 51.87071 | -0.39081 | 647 ft | 131 kts | 70° |
| 2026-04-27 21:19 | 51.87315 | -0.37683 | 523 ft | 121 kts | 72° |
| 2026-04-27 21:20 | 51.87542 | -0.36398 | 522 ft | 37 kts | 75° |
| 2026-04-27 21:20 | 51.87599 | -0.36037 | 515 ft | 21 kts | 74° |
| 2026-04-27 21:20 | 51.87659 | -0.35914 | 516 ft | 14 kts | 0° |
| 2026-04-27 21:20 | 51.87756 | -0.35967 | 516 ft | 15 kts | 329° |
| 2026-04-27 21:21 | 51.87777 | -0.36117 | 518 ft | 14 kts | 255° |
| 2026-04-27 21:21 | 51.87752 | -0.36257 | 518 ft | 12 kts | 254° |
| 2026-04-27 21:21 | 51.87730 | -0.36383 | 518 ft | 11 kts | 253° |
| 2026-04-27 21:21 | 51.87713 | -0.36484 | 520 ft | 8 kts | 254° |
| 2026-04-27 21:22 | 51.87698 | -0.36570 | 520 ft | 10 kts | 255° |
| 2026-04-27 21:22 | 51.87675 | -0.36708 | 522 ft | 15 kts | 254° |
| 2026-04-27 21:22 | 51.87647 | -0.36860 | 525 ft | 13 kts | 253° |
| 2026-04-27 21:22 | 51.87625 | -0.36995 | 522 ft | 14 kts | 255° |
| 2026-04-27 21:23 | 51.87600 | -0.37137 | 522 ft | 12 kts | 254° |
| 2026-04-27 21:23 | 51.87578 | -0.37262 | 522 ft | 11 kts | 257° |
| 2026-04-27 21:23 | 51.87582 | -0.37372 | 522 ft | 9 kts | 288° |
| 2026-04-27 21:23 | 51.87612 | -0.37440 | 523 ft | 5 kts | 323° |
| 2026-04-27 21:24 | 51.87642 | -0.37474 | 522 ft | 6 kts | 327° |
| 2026-04-27 21:24 | 51.87688 | -0.37531 | 521 ft | 10 kts | 307° |
| 2026-04-27 21:24 | 51.87724 | -0.37653 | 519 ft | 12 kts | 294° |
| 2026-04-27 21:24 | 51.87752 | -0.37756 | 523 ft | 8 kts | 294° |
| 2026-04-27 21:25 | 51.87773 | -0.37829 | 523 ft | 6 kts | 294° |
| 2026-04-27 21:25 | 51.87790 | -0.37888 | 523 ft | 5 kts | 295° |
| 2026-04-27 21:25 | 51.87813 | -0.37948 | 523 ft | 8 kts | 310° |
| 2026-04-27 21:25 | 51.87846 | -0.37998 | 523 ft | 5 kts | 324° |
| 2026-04-27 21:26 | 51.87875 | -0.37995 | 523 ft | 5 kts | 43° |
| 2026-04-27 21:26 | 51.87880 | -0.37963 | 523 ft | 2 kts | 66° |
| 2026-04-27 21:26 | 51.87885 | -0.37939 | 523 ft | 2 kts | 72° |
| 2026-04-27 21:26 | 51.87888 | -0.37926 | 523 ft | 1 kts | 72° |
| 2026-04-27 21:27 | 51.87888 | -0.37925 | 523 ft | 0 kts | 72° |